Time;durP1;ratioP1;P1;durP2;ratioP2;P2;SDS_P1;SDS_P2;PMS_P1;PMS_P2;Temp;Humidity;BMP_temperature;BMP_pressure;BME280_temperature;BME280_humidity;BME280_pressure;Samples;Min_cycle;Max_cycle;Signal;HPM_P1;HPM_P2
2022/01/14 00:00:09;;;;;;;34.00;13.77;;;;;;;-5.15;86.02;95641.63;5009242;28;20060;-60
2022/01/14 00:02:36;;;;;;;29.85;13.20;;;;;;;-5.08;86.25;95640.25;5010740;28;20072;-60
2022/01/14 00:05:03;;;;;;;36.72;16.42;;;;;;;-5.07;86.69;95630.34;5010530;28;20389;-60
2022/01/14 00:07:30;;;;;;;46.67;17.63;;;;;;;-5.03;86.39;95632.22;5010235;28;20046;-60
2022/01/14 00:09:56;;;;;;;39.15;16.15;;;;;;;-5.00;86.00;95627.41;5009537;28;20046;-61
2022/01/14 00:12:27;;;;;;;47.25;17.48;;;;;;;-5.06;84.90;95635.44;5025434;28;20042;-60
2022/01/14 00:15:01;;;;;;;65.18;21.20;;;;;;;-5.11;84.11;95632.81;5008182;28;20049;-60
2022/01/14 00:17:28;;;;;;;77.10;23.98;;;;;;;-5.11;83.26;95638.16;5010048;28;20038;-60
2022/01/14 00:19:55;;;;;;;62.83;21.87;;;;;;;-5.13;83.41;95634.94;5009584;28;21483;-61
2022/01/14 00:22:24;;;;;;;69.72;22.15;;;;;;;-5.10;82.98;95631.72;5025656;28;20054;-60
2022/01/14 00:33:05;;;;;;;53.23;22.47;;;;;;;-5.73;83.48;95644.72;4990022;28;20637;-60
2022/01/14 00:35:34;;;;;;;51.47;20.08;;;;;;;-5.82;84.66;95650.59;4990516;28;20081;-60
2022/01/14 00:38:02;;;;;;;52.90;21.63;;;;;;;-5.83;84.57;95649.00;4990389;28;20052;-60
2022/01/14 00:40:29;;;;;;;50.97;19.10;;;;;;;-5.79;84.32;95651.97;4990275;28;20053;-57
2022/01/14 00:42:56;;;;;;;47.25;18.73;;;;;;;-5.79;84.02;95657.31;4990673;28;20047;-61
2022/01/14 00:45:23;;;;;;;49.93;19.73;;;;;;;-6.04;85.45;95656.28;4990444;28;20430;-61
2022/01/14 00:47:50;;;;;;;46.17;18.70;;;;;;;-5.83;85.15;95659.69;4988621;28;20042;-61
2022/01/14 00:50:19;;;;;;;50.42;18.95;;;;;;;-5.80;85.13;95662.91;5005034;28;20045;-61
2022/01/14 00:52:46;;;;;;;48.97;19.35;;;;;;;-5.85;84.61;95653.03;5009490;28;20054;-61
2022/01/14 00:55:17;;;;;;;48.97;18.92;;;;;;;-5.73;84.91;95666.13;5009466;28;20038;-61
2022/01/14 01:00:23;;;;;;;40.42;17.08;;;;;;;-5.57;83.90;95667.72;5009460;28;20056;-61
2022/01/14 01:02:50;;;;;;;40.20;15.52;;;;;;;-5.58;83.28;95660.75;5009361;28;20422;-62
2022/01/14 01:05:18;;;;;;;38.58;15.52;;;;;;;-5.51;84.20;95663.16;5009616;28;20050;-61
2022/01/14 01:07:53;;;;;;;33.25;13.20;;;;;;;-5.51;83.89;95666.63;5009175;28;20050;-61
2022/01/14 01:10:20;;;;;;;35.57;13.37;;;;;;;-5.67;84.46;95665.84;5009549;28;20049;-61
2022/01/14 01:15:17;;;;;;;33.70;13.57;;;;;;;-5.61;83.48;95661.28;5009120;28;20064;-62
2022/01/14 01:17:45;;;;;;;36.03;12.65;;;;;;;-5.58;82.95;95652.72;5008916;28;20040;-61
2022/01/14 01:20:16;;;;;;;28.38;11.68;;;;;;;-5.66;83.30;95662.09;4994461;28;20054;-61
2022/01/14 01:22:49;;;;;;;30.83;11.23;;;;;;;-5.58;82.80;95659.94;4989475;28;20046;-61
2022/01/14 01:25:19;;;;;;;32.53;12.90;;;;;;;-5.57;82.76;95658.84;5003112;28;20072;-61
2022/01/14 01:27:48;;;;;;;34.05;13.32;;;;;;;-5.60;82.46;95656.75;5009147;28;20054;-61
2022/01/14 01:33:03;;;;;;;23.73;9.55;;;;;;;-5.58;82.28;95646.56;5008845;28;20387;-61
2022/01/14 01:35:30;;;;;;;22.90;9.93;;;;;;;-5.56;81.99;95644.44;5007790;28;20049;-61
2022/01/14 01:37:57;;;;;;;22.23;8.65;;;;;;;-5.59;82.02;95636.94;5009201;28;20064;-61
2022/01/14 01:40:26;;;;;;;23.73;11.05;;;;;;;-5.55;82.15;95638.00;5008801;28;20042;-61
2022/01/14 01:42:56;;;;;;;39.15;14.65;;;;;;;-5.54;81.94;95637.72;5023466;28;20103;-61
2022/01/14 01:45:25;;;;;;;31.77;12.75;;;;;;;-5.53;83.26;95641.19;5009264;28;20529;-59
2022/01/14 01:47:54;;;;;;;34.50;13.20;;;;;;;-5.54;84.01;95647.63;5008904;28;20446;-61
2022/01/14 01:50:25;;;;;;;29.77;11.02;;;;;;;-5.51;83.39;95645.22;5007849;28;20045;-61
2022/01/14 01:52:53;;;;;;;31.17;12.68;;;;;;;-5.59;83.70;95647.63;5008580;28;20050;-61
2022/01/14 01:55:22;;;;;;;32.30;12.85;;;;;;;-5.60;84.79;95643.38;5008943;28;20127;-60
2022/01/14 01:57:49;;;;;;;30.70;12.38;;;;;;;-5.55;84.18;95638.00;5008431;28;20057;-61
2022/01/14 02:00:19;;;;;;;30.90;12.20;;;;;;;-5.58;84.41;95642.00;5008687;28;20054;-61
2022/01/14 02:02:48;;;;;;;28.80;11.57;;;;;;;-5.56;83.58;95653.25;5008257;28;20046;-60
2022/01/14 02:05:16;;;;;;;31.95;12.13;;;;;;;-5.53;83.97;95649.22;5008700;28;20046;-61
2022/01/14 02:07:44;;;;;;;29.05;11.20;;;;;;;-5.53;83.94;95652.72;5006832;28;20060;-61
2022/01/14 02:10:12;;;;;;;27.75;11.55;;;;;;;-5.54;83.59;95650.31;5008767;28;20122;-60
2022/01/14 02:12:48;;;;;;;31.30;11.93;;;;;;;-5.79;83.80;95653.81;5008462;28;20046;-60
2022/01/14 02:23:27;;;;;;;23.88;10.18;;;;;;;-5.64;82.72;95635.06;5007511;28;20046;-60
2022/01/14 02:25:54;;;;;;;25.20;10.00;;;;;;;-5.65;82.46;95630.81;5008037;28;20045;-61
2022/01/14 02:28:21;;;;;;;25.33;9.55;;;;;;;-5.64;81.76;95633.19;5008579;28;20501;-60
2022/01/14 02:30:49;;;;;;;22.23;8.93;;;;;;;-5.62;81.89;95622.22;5007089;28;20177;-60
2022/01/14 02:33:17;;;;;;;21.17;8.40;;;;;;;-5.63;81.83;95626.00;5008562;28;20075;-60
2022/01/14 02:35:47;;;;;;;22.58;8.63;;;;;;;-5.66;82.22;95615.81;5008118;28;20046;-60
2022/01/14 02:38:15;;;;;;;19.70;7.90;;;;;;;-5.69;81.82;95616.38;5008552;28;20049;-60
2022/01/14 02:40:43;;;;;;;57.10;16.73;;;;;;;-5.68;81.92;95605.38;5008285;28;20140;-60
2022/01/14 02:43:15;;;;;;;68.95;19.67;;;;;;;-5.76;82.23;95611.28;5012310;28;20054;-63
2022/01/14 02:45:48;;;;;;;65.88;18.58;;;;;;;-5.72;81.92;95606.22;5011472;28;20651;-61
2022/01/14 02:48:16;;;;;;;70.57;19.63;;;;;;;-5.76;82.43;95605.16;5010860;28;20050;-60
2022/01/14 02:51:10;;;;;;;39.33;13.00;;;;;;;-5.80;83.20;95598.75;5010885;28;20046;-61
2022/01/14 02:56:08;;;;;;;37.22;14.88;;;;;;;-5.87;84.45;95607.84;5012251;28;20045;-61
2022/01/14 02:58:37;;;;;;;38.58;14.50;;;;;;;-5.96;84.61;95595.31;5010104;28;20402;-61
2022/01/14 03:01:07;;;;;;;39.72;13.85;;;;;;;-5.85;84.63;95597.69;5011995;28;20426;-60
2022/01/14 03:03:34;;;;;;;47.23;15.33;;;;;;;-5.87;84.51;95591.00;5011331;28;20072;-60
2022/01/14 03:06:03;;;;;;;60.67;19.90;;;;;;;-5.81;84.63;95597.94;5012061;28;20057;-60
2022/01/14 03:08:31;;;;;;;85.88;23.90;;;;;;;-5.82;83.97;95590.97;5011266;28;20059;-60
2022/01/14 03:11:23;;;;;;;47.10;14.90;;;;;;;-5.89;84.37;95585.13;5011934;28;20465;-61
2022/01/14 03:13:50;;;;;;;28.60;11.65;;;;;;;-6.07;85.47;95581.19;5011178;28;20048;-60
2022/01/14 03:16:21;;;;;;;24.80;10.33;;;;;;;-6.00;85.72;95586.22;5011484;28;20044;-60
2022/01/14 03:18:51;;;;;;;24.60;10.68;;;;;;;-5.90;85.28;95581.63;5011231;28;20052;-60
2022/01/14 03:21:27;;;;;;;41.05;13.93;;;;;;;-5.93;84.66;95574.16;5011559;28;20052;-61
2022/01/14 03:24:16;;;;;;;37.95;14.15;;;;;;;-5.93;84.24;95579.53;5002883;28;20041;-60
2022/01/14 03:26:45;;;;;;;36.63;13.10;;;;;;;-5.94;83.92;95575.22;5011178;28;20128;-61
2022/01/14 03:29:17;;;;;;;33.67;13.07;;;;;;;-5.92;83.62;95574.97;5011551;28;20061;-63
2022/01/14 03:31:45;;;;;;;35.20;13.60;;;;;;;-5.98;84.02;95578.75;5009802;28;20046;-61
2022/01/14 03:34:13;;;;;;;30.48;13.10;;;;;;;-5.99;84.53;95575.28;5043189;28;20081;-61
2022/01/14 03:36:40;;;;;;;33.28;13.20;;;;;;;-5.93;84.02;95576.84;5010593;28;20053;-60
2022/01/14 03:39:07;;;;;;;33.00;12.15;;;;;;;-5.91;83.50;95587.28;5011156;28;20077;-60
2022/01/14 03:41:34;;;;;;;33.37;13.10;;;;;;;-6.01;83.81;95580.09;5010633;28;20388;-61
2022/01/14 03:44:01;;;;;;;32.53;12.63;;;;;;;-6.02;84.06;95583.81;5011277;28;20049;-60
2022/01/14 03:46:27;;;;;;;35.15;13.50;;;;;;;-6.05;83.94;95585.19;5011021;28;20049;-60
2022/01/14 03:48:54;;;;;;;39.78;13.75;;;;;;;-6.02;84.03;95602.53;5010788;28;20061;-60
2022/01/14 03:51:23;;;;;;;37.33;14.93;;;;;;;-5.99;84.01;95590.53;5010926;28;20064;-60
2022/01/14 03:53:50;;;;;;;38.40;14.23;;;;;;;-5.98;84.51;95587.56;5009291;28;20056;-60
2022/01/14 03:56:18;;;;;;;35.00;12.43;;;;;;;-5.97;84.10;95588.38;5010821;28;20053;-61
2022/01/14 03:58:45;;;;;;;33.65;13.90;;;;;;;-5.96;84.30;95592.66;5010281;28;20092;-60
2022/01/14 04:01:12;;;;;;;35.83;12.93;;;;;;;-5.93;84.29;95592.09;5010756;28;20046;-61
2022/01/14 04:03:41;;;;;;;31.92;12.65;;;;;;;-5.97;83.92;95597.19;5010112;28;20056;-61
2022/01/14 04:06:10;;;;;;;34.73;13.03;;;;;;;-5.98;83.77;95592.91;5010970;28;20659;-61
2022/01/14 04:08:38;;;;;;;30.60;11.93;;;;;;;-6.01;83.67;95600.69;5009997;28;20058;-61
2022/01/14 04:11:05;;;;;;;32.25;12.25;;;;;;;-6.00;83.60;95605.75;5011122;28;20054;-60
2022/01/14 04:13:46;;;;;;;29.83;11.90;;;;;;;-6.02;83.65;95599.88;5009945;28;20509;-59
2022/01/14 04:16:14;;;;;;;34.17;12.85;;;;;;;-6.05;83.64;95601.22;5010707;28;20046;-61
2022/01/14 04:18:41;;;;;;;35.00;13.37;;;;;;;-6.04;83.12;95593.97;5009602;28;20052;-58
2022/01/14 04:21:08;;;;;;;31.60;12.07;;;;;;;-6.12;83.51;95594.53;5024899;28;20052;-59
2022/01/14 04:23:35;;;;;;;32.83;13.48;;;;;;;-6.11;83.56;95586.25;5009924;28;20096;-58
2022/01/14 04:26:02;;;;;;;35.65;14.27;;;;;;;-6.17;83.70;95581.97;5010564;28;20058;-61
2022/01/14 04:28:34;;;;;;;46.35;17.50;;;;;;;-6.13;84.20;95580.38;4983956;28;20068;-58
2022/01/14 04:31:01;;;;;;;36.10;13.90;;;;;;;-6.27;84.07;95580.09;5025517;28;20046;-60
2022/01/14 04:33:30;;;;;;;39.08;16.02;;;;;;;-6.19;84.06;95575.31;5010272;28;20053;-60
2022/01/14 04:36:01;;;;;;;44.22;19.38;;;;;;;-6.17;84.04;95565.94;5009088;28;21721;-60
2022/01/14 04:38:29;;;;;;;40.75;19.30;;;;;;;-6.24;84.17;95558.22;5010033;28;20053;-60
2022/01/14 04:40:56;;;;;;;34.47;14.18;;;;;;;-6.28;83.78;95559.81;5009140;28;20876;-61
2022/01/14 04:43:24;;;;;;;29.87;12.37;;;;;;;-6.53;84.74;95549.94;5009726;28;20052;-60
2022/01/14 04:48:22;;;;;;;32.05;12.70;;;;;;;-6.69;85.22;95551.78;5024485;28;20490;-60
2022/01/14 04:50:53;;;;;;;35.95;12.50;;;;;;;-6.53;85.00;95557.16;5009435;28;20050;-60
2022/01/14 04:53:21;;;;;;;36.45;13.77;;;;;;;-6.43;84.96;95552.59;5009638;28;20054;-60
2022/01/14 04:55:49;;;;;;;28.80;12.23;;;;;;;-6.37;84.02;95547.28;5009433;28;20042;-60
2022/01/14 04:58:16;;;;;;;34.25;12.63;;;;;;;-6.33;83.97;95541.13;5024876;28;20060;-60
2022/01/14 05:00:43;;;;;;;30.42;12.68;;;;;;;-6.31;83.59;95530.16;5008990;28;20046;-61
2022/01/14 05:03:10;;;;;;;31.33;12.30;;;;;;;-6.38;83.83;95529.63;5009803;28;20050;-60
2022/01/14 05:05:40;;;;;;;32.97;13.32;;;;;;;-6.43;84.51;95533.91;5008187;28;20049;-58
2022/01/14 05:08:11;;;;;;;32.77;13.40;;;;;;;-6.36;83.97;95530.16;5009024;28;20053;-59
2022/01/14 05:11:41;;;;;;;34.60;14.23;;;;;;;-6.31;84.26;95530.16;5007991;28;20049;-59
2022/01/14 05:13:34;;;;;;;41.15;16.63;;;;;;;-6.28;83.59;95525.09;5007871;28;20037;-59
2022/01/14 05:16:01;;;;;;;38.72;15.05;;;;;;;-6.24;83.57;95525.31;5024255;28;20038;-58
2022/01/14 05:18:28;;;;;;;34.15;13.75;;;;;;;-6.23;83.09;95518.94;4991852;28;20045;-59
2022/01/14 05:20:54;;;;;;;32.37;13.13;;;;;;;-6.19;83.53;95521.88;5003797;28;20231;-59
2022/01/14 05:23:21;;;;;;;39.53;15.98;;;;;;;-6.31;83.51;95506.91;5004867;28;20038;-59
2022/01/14 05:25:48;;;;;;;37.63;14.55;;;;;;;-6.32;82.97;95512.53;5008850;28;20446;-59
2022/01/14 05:28:15;;;;;;;32.70;13.13;;;;;;;-6.28;83.24;95513.59;5009378;28;20041;-59
2022/01/14 05:30:42;;;;;;;32.13;13.40;;;;;;;-6.30;82.62;95511.19;5008480;28;20422;-58
2022/01/14 05:33:08;;;;;;;29.87;12.70;;;;;;;-6.32;82.47;95510.63;5009097;28;20373;-59
2022/01/14 05:35:35;;;;;;;28.98;12.80;;;;;;;-6.36;82.49;95509.56;5008530;28;20054;-60
2022/01/14 05:38:03;;;;;;;30.08;11.98;;;;;;;-6.37;82.60;95521.34;5009059;28;20567;-59
2022/01/14 05:40:30;;;;;;;31.15;12.38;;;;;;;-6.37;82.93;95516.00;5008314;28;20050;-59
2022/01/14 05:42:57;;;;;;;51.40;18.98;;;;;;;-6.40;82.71;95513.84;5009038;28;20038;-59
2022/01/14 05:45:25;;;;;;;47.20;16.87;;;;;;;-6.36;82.70;95520.25;5008640;28;20048;-59
2022/01/14 05:47:51;;;;;;;38.67;15.30;;;;;;;-6.46;83.34;95510.41;5008143;28;20402;-59
2022/01/14 05:50:21;;;;;;;39.20;15.82;;;;;;;-6.44;83.73;95512.78;5009014;28;20542;-59
2022/01/14 05:52:48;;;;;;;39.67;16.15;;;;;;;-6.37;83.37;95518.69;5008570;28;20046;-59
2022/01/14 05:55:17;;;;;;;37.28;15.50;;;;;;;-6.37;83.53;95515.22;5008659;28;20050;-59
2022/01/14 05:57:44;;;;;;;35.80;14.57;;;;;;;-6.36;84.13;95508.78;5008171;28;20049;-59
2022/01/14 06:00:15;;;;;;;32.10;13.30;;;;;;;-6.34;84.21;95509.31;5005403;28;20049;-60
2022/01/14 06:02:41;;;;;;;28.05;12.02;;;;;;;-6.27;83.92;95523.22;5020369;28;20049;-59
2022/01/14 06:05:08;;;;;;;30.80;12.77;;;;;;;-6.22;84.05;95512.50;5027835;28;20045;-59
2022/01/14 06:07:35;;;;;;;34.97;13.45;;;;;;;-6.21;84.04;95518.66;5009037;28;20639;-60
2022/01/14 06:10:03;;;;;;;42.60;16.87;;;;;;;-6.17;84.19;95517.06;5007417;28;20133;-61
2022/01/14 06:12:30;;;;;;;85.85;30.48;;;;;;;-6.27;84.83;95513.31;5018679;28;20051;-60
2022/01/14 06:14:56;;;;;;;49.70;19.23;;;;;;;-6.24;84.98;95512.78;5017153;28;20046;-60
2022/01/14 06:17:23;;;;;;;44.08;16.23;;;;;;;-6.23;84.95;95524.28;5019151;28;20127;-64
2022/01/14 06:19:51;;;;;;;225.52;61.15;;;;;;;-6.18;84.59;95520.78;5037114;28;20037;-60
2022/01/14 06:22:21;;;;;;;160.40;45.53;;;;;;;-6.17;84.75;95525.06;5022900;28;20044;-60
2022/01/14 06:24:49;;;;;;;115.90;36.35;;;;;;;-6.15;84.42;95517.59;5001140;28;20151;-60
2022/01/14 06:27:17;;;;;;;62.15;22.23;;;;;;;-6.18;84.48;95520.78;5021428;28;20049;-60
2022/01/14 06:29:44;;;;;;;56.55;20.60;;;;;;;-6.16;84.64;95514.09;5020163;28;20064;-61
2022/01/14 06:32:11;;;;;;;59.22;21.08;;;;;;;-6.11;84.39;95524.78;5021028;28;20042;-60
2022/01/14 06:34:38;;;;;;;52.63;18.97;;;;;;;-6.08;83.59;95521.56;5024026;28;20043;-60
2022/01/14 06:37:05;;;;;;;50.30;18.20;;;;;;;-6.12;83.32;95525.84;5014040;28;20054;-61
2022/01/14 06:39:31;;;;;;;47.53;17.58;;;;;;;-6.11;83.52;95524.00;5011612;28;20037;-59
2022/01/14 06:41:59;;;;;;;38.05;15.70;;;;;;;-6.12;83.57;95523.16;5043845;28;20053;-60
2022/01/14 06:44:25;;;;;;;30.75;12.70;;;;;;;-6.18;83.20;95518.91;5012030;28;20042;-60
2022/01/14 06:46:52;;;;;;;31.03;11.47;;;;;;;-6.21;83.87;95516.78;5012006;28;20045;-61
2022/01/14 06:49:19;;;;;;;29.77;11.50;;;;;;;-6.17;84.34;95523.19;5043739;28;20058;-60
2022/01/14 06:51:46;;;;;;;36.17;14.77;;;;;;;-6.27;84.70;95526.69;5011692;28;20053;-60
2022/01/14 06:54:13;;;;;;;36.22;14.63;;;;;;;-6.17;84.10;95519.72;5012250;28;20053;-60
2022/01/14 06:56:39;;;;;;;34.75;13.98;;;;;;;-6.16;84.23;95524.00;5011761;28;20564;-60
2022/01/14 06:59:12;;;;;;;31.43;12.70;;;;;;;-6.12;83.71;95525.84;5012427;28;20045;-60
2022/01/14 07:01:38;;;;;;;35.55;14.40;;;;;;;-6.05;83.34;95530.94;5010949;28;20053;-60
2022/01/14 07:04:05;;;;;;;45.15;18.70;;;;;;;-6.09;83.45;95533.34;5010663;28;20068;-60
2022/01/14 07:06:32;;;;;;;34.55;15.70;;;;;;;-6.03;83.53;95532.25;5026075;28;20131;-60
2022/01/14 07:08:59;;;;;;;35.70;15.57;;;;;;;-6.09;83.72;95532.53;5012096;28;20041;-61
2022/01/14 07:11:30;;;;;;;37.10;15.23;;;;;;;-6.06;83.72;95540.78;5011849;28;20054;-61
2022/01/14 07:13:57;;;;;;;36.58;14.38;;;;;;;-6.09;83.47;95545.91;5003608;28;21679;-60
2022/01/14 07:16:24;;;;;;;36.35;14.68;;;;;;;-6.07;83.58;95546.44;5011977;28;20046;-61
2022/01/14 07:18:51;;;;;;;33.42;13.30;;;;;;;-6.05;82.99;95547.75;5011533;28;20386;-60
2022/01/14 07:21:17;;;;;;;30.38;13.50;;;;;;;-6.02;83.42;95549.06;5012035;28;20042;-60
2022/01/14 07:23:45;;;;;;;35.33;13.87;;;;;;;-6.03;82.86;95540.28;5011242;28;20046;-60
2022/01/14 07:26:12;;;;;;;30.70;13.00;;;;;;;-6.00;83.00;95548.81;5011448;28;20548;-60
2022/01/14 07:28:38;;;;;;;32.92;12.80;;;;;;;-5.96;82.78;95549.88;5010635;28;20054;-60
2022/01/14 07:31:10;;;;;;;34.97;12.73;;;;;;;-5.95;83.07;95551.50;5011788;28;20053;-60
2022/01/14 07:33:37;;;;;;;34.40;13.23;;;;;;;-5.89;82.58;95553.84;5011063;28;20049;-60
2022/01/14 07:36:04;;;;;;;33.40;13.30;;;;;;;-5.91;81.80;95544.50;5011633;28;20057;-60
2022/01/14 07:38:31;;;;;;;32.85;12.65;;;;;;;-5.87;81.87;95542.88;5010465;28;20410;-59
2022/01/14 07:40:57;;;;;;;35.30;13.38;;;;;;;-5.83;81.06;95541.28;5011154;28;20048;-59
2022/01/14 07:43:24;;;;;;;33.05;12.68;;;;;;;-5.89;80.98;95551.16;5025827;28;20064;-58
2022/01/14 07:45:51;;;;;;;30.42;11.90;;;;;;;-5.75;81.10;95553.28;5010607;28;20348;-59
2022/01/14 07:48:18;;;;;;;28.97;12.00;;;;;;;-5.71;80.48;95549.00;5010520;28;20049;-59
2022/01/14 07:50:45;;;;;;;32.13;13.18;;;;;;;-5.70;80.36;95550.59;5010423;28;20044;-60
2022/01/14 07:53:11;;;;;;;32.92;13.70;;;;;;;-5.86;80.73;95549.81;5011086;28;20054;-60
2022/01/14 07:55:38;;;;;;;30.73;12.15;;;;;;;-5.68;80.46;95548.44;5042172;28;20072;-60
2022/01/14 07:58:05;;;;;;;33.42;13.38;;;;;;;-5.64;80.16;95552.97;5011445;28;20050;-59
2022/01/14 08:00:35;;;;;;;31.87;13.13;;;;;;;-5.54;80.20;95551.34;5009274;28;20061;-59
2022/01/14 08:03:03;;;;;;;43.60;16.83;;;;;;;-5.53;80.01;95556.41;5010832;28;20052;-61
2022/01/14 08:05:30;;;;;;;39.28;16.42;;;;;;;-5.53;79.23;95548.41;5009784;28;20041;-57
2022/01/14 08:08:03;;;;;;;42.05;17.23;;;;;;;-5.50;79.29;95553.19;5010508;28;20045;-60
2022/01/14 08:10:31;;;;;;;46.67;17.55;;;;;;;-3.86;76.93;95551.28;5010636;28;20053;-64
2022/01/14 08:12:58;;;;;;;36.70;14.40;;;;;;;-0.70;68.29;95537.66;5010877;28;20068;-60
2022/01/14 08:15:30;;;;;;;72.70;20.90;;;;;;;2.06;61.33;95539.31;5010083;28;20489;-61
2022/01/14 08:17:59;;;;;;;58.00;19.60;;;;;;;3.42;55.62;95525.84;5009416;28;20107;-60
2022/01/14 08:20:26;;;;;;;56.22;19.83;;;;;;;4.29;50.61;95527.00;5010250;28;20407;-61
2022/01/14 08:22:53;;;;;;;42.67;18.00;;;;;;;5.19;48.32;95531.53;5009153;28;20402;-62
2022/01/14 08:25:20;;;;;;;36.83;16.60;;;;;;;5.87;45.18;95532.75;5010253;28;20060;-62
2022/01/14 08:27:46;;;;;;;35.35;16.88;;;;;;;7.53;43.50;95533.13;5009661;28;20042;-62
2022/01/14 08:30:14;;;;;;;35.63;18.15;;;;;;;8.28;39.88;95533.09;5009968;28;20542;-62
2022/01/14 08:32:41;;;;;;;39.78;18.85;;;;;;;8.54;39.22;95532.47;5009589;28;20081;-60
2022/01/14 08:35:08;;;;;;;52.50;22.20;;;;;;;9.20;38.79;95535.94;5010377;28;20053;-60
2022/01/14 08:37:37;;;;;;;38.93;20.00;;;;;;;9.31;36.90;95539.63;5009597;28;20060;-60
2022/01/14 08:40:06;;;;;;;32.85;18.63;;;;;;;8.33;38.36;95536.34;5009676;28;20046;-60
2022/01/14 08:42:34;;;;;;;31.85;18.33;;;;;;;9.57;35.72;95538.06;5009978;28;20495;-60
2022/01/14 08:45:01;;;;;;;33.45;19.73;;;;;;;8.29;37.30;95543.69;5010123;28;20050;-60
2022/01/14 08:47:28;;;;;;;37.25;20.67;;;;;;;8.72;35.34;95533.56;5009986;28;20406;-60
2022/01/14 08:49:54;;;;;;;38.40;21.57;;;;;;;9.06;36.04;95538.47;5008778;28;20692;-60
2022/01/14 08:52:21;;;;;;;38.42;22.48;;;;;;;9.28;36.23;95534.13;5008647;28;20394;-60
2022/01/14 08:54:48;;;;;;;45.33;24.80;;;;;;;9.22;35.72;95536.38;5009421;28;20076;-61
2022/01/14 08:57:16;;;;;;;43.13;26.27;;;;;;;9.93;34.42;95536.63;5025049;28;20108;-61
2022/01/14 08:59:42;;;;;;;39.08;21.98;;;;;;;10.73;33.14;95533.66;5007793;28;20072;-60
2022/01/14 09:02:10;;;;;;;30.83;20.13;;;;;;;11.12;32.88;95530.47;5009494;28;20046;-61
2022/01/14 09:04:37;;;;;;;34.08;19.23;;;;;;;12.28;31.88;95529.28;5008687;28;20050;-60
2022/01/14 09:07:04;;;;;;;31.48;19.42;;;;;;;12.01;31.34;95528.75;5009413;28;20045;-60
2022/01/14 09:09:31;;;;;;;31.15;18.98;;;;;;;11.85;31.71;95516.09;5008766;28;20046;-61
2022/01/14 09:11:58;;;;;;;29.58;17.58;;;;;;;11.41;32.10;95508.75;5009466;28;20054;-61
2022/01/14 09:14:25;;;;;;;28.10;17.67;;;;;;;10.93;32.64;95516.97;5007852;28;20069;-60
2022/01/14 09:16:52;;;;;;;30.70;17.58;;;;;;;11.42;31.80;95510.31;5008817;28;20042;-61
2022/01/14 09:19:20;;;;;;;29.85;18.38;;;;;;;12.46;30.77;95516.38;5009796;28;20041;-61
2022/01/14 09:21:47;;;;;;;27.67;16.65;;;;;;;12.63;30.10;95525.06;5008739;28;20046;-63
2022/01/14 09:24:34;;;;;;;28.90;17.27;;;;;;;12.10;29.96;95527.25;5009328;28;20104;-61
2022/01/14 09:27:01;;;;;;;31.80;19.03;;;;;;;12.53;30.62;95527.41;5008127;28;20506;-61
2022/01/14 09:29:28;;;;;;;29.55;17.27;;;;;;;13.41;29.90;95520.88;5009343;28;20041;-61
2022/01/14 09:31:55;;;;;;;27.15;17.10;;;;;;;14.38;28.06;95524.97;5008181;28;20910;-61
2022/01/14 09:34:22;;;;;;;24.35;15.45;;;;;;;15.30;26.76;95521.31;5008966;28;20293;-61
2022/01/14 09:36:48;;;;;;;28.75;18.80;;;;;;;14.93;27.46;95520.78;5008611;28;20042;-61
2022/01/14 09:39:15;;;;;;;28.73;17.90;;;;;;;15.86;25.93;95515.72;5009244;28;20048;-61
2022/01/14 09:41:42;;;;;;;27.13;16.58;;;;;;;15.87;26.20;95515.31;5008431;28;20042;-61
2022/01/14 09:44:13;;;;;;;25.92;16.92;;;;;;;14.48;27.41;95522.56;5008767;28;20042;-61
2022/01/14 09:46:40;;;;;;;31.05;19.10;;;;;;;15.41;27.29;95515.69;5008505;28;20368;-61
2022/01/14 09:49:07;;;;;;;26.30;17.35;;;;;;;16.11;25.80;95521.00;5008812;28;20038;-63
2022/01/14 09:51:34;;;;;;;27.27;16.50;;;;;;;15.46;26.39;95521.59;5008522;28;20080;-63
2022/01/14 09:54:02;;;;;;;31.90;18.17;;;;;;;15.00;26.99;95533.00;5008850;28;20056;-63
2022/01/14 09:56:29;;;;;;;27.35;16.27;;;;;;;16.20;26.26;95521.31;5008498;28;20085;-62
2022/01/14 09:58:56;;;;;;;24.60;15.68;;;;;;;16.71;25.57;95529.78;5007891;28;20556;-61
2022/01/14 10:01:23;;;;;;;24.35;14.55;;;;;;;18.20;23.77;95527.06;5008947;28;20167;-61
2022/01/14 10:03:55;;;;;;;21.60;14.83;;;;;;;16.12;25.43;95533.66;5008114;28;20103;-61
2022/01/14 10:06:45;;;;;;;26.67;17.98;;;;;;;18.28;23.63;95522.94;5007527;28;20049;-62
2022/01/14 10:09:20;;;;;;;20.67;14.20;;;;;;;18.42;22.91;95533.00;5008097;28;20064;-62
2022/01/14 10:12:08;;;;;;;22.50;14.43;;;;;;;18.09;23.09;95527.25;5008461;28;20052;-62
2022/01/14 10:14:37;;;;;;;22.40;15.80;;;;;;;16.25;25.75;95520.84;5008433;28;20419;-62
2022/01/14 10:17:07;;;;;;;23.80;15.43;;;;;;;16.80;24.77;95521.72;5007717;28;20050;-62
2022/01/14 10:19:42;;;;;;;19.38;13.98;;;;;;;15.90;25.91;95524.78;5008553;28;20041;-62
2022/01/14 10:22:28;;;;;;;24.05;14.45;;;;;;;15.17;26.95;95532.88;5008815;28;20056;-63
2022/01/14 10:25:08;;;;;;;23.23;14.80;;;;;;;16.15;26.02;95518.97;5008169;28;20048;-62
2022/01/14 10:27:42;;;;;;;21.60;14.68;;;;;;;17.43;24.22;95524.00;5008157;28;20042;-62
2022/01/14 10:30:17;;;;;;;24.13;15.43;;;;;;;16.90;25.50;95515.31;5008802;28;20050;-61
2022/01/14 10:32:46;;;;;;;22.75;15.27;;;;;;;16.39;26.04;95525.44;5006567;28;20057;-62
2022/01/14 10:35:18;;;;;;;22.23;15.38;;;;;;;15.68;26.33;95518.63;5008669;28;20410;-62
2022/01/14 10:37:45;;;;;;;25.50;16.40;;;;;;;16.82;25.25;95516.59;5008007;28;20441;-62
2022/01/14 10:40:16;;;;;;;22.30;15.07;;;;;;;16.70;25.73;95517.91;5008779;28;20042;-62
2022/01/14 10:42:45;;;;;;;21.83;14.83;;;;;;;18.21;23.61;95506.41;5008149;28;20496;-62
2022/01/14 10:45:19;;;;;;;28.13;16.17;;;;;;;18.63;23.75;95509.53;5008795;28;20053;-62
2022/01/14 10:48:06;;;;;;;29.27;15.95;;;;;;;18.49;23.34;95496.72;5007841;28;20380;-62
2022/01/14 10:50:54;;;;;;;21.77;15.35;;;;;;;17.92;24.42;95495.84;5009471;28;20446;-62
2022/01/14 10:53:29;;;;;;;23.40;16.70;;;;;;;17.34;24.73;95488.47;5008635;28;20060;-62
2022/01/14 10:56:01;;;;;;;23.47;15.67;;;;;;;17.74;24.37;95491.34;5022602;28;20056;-63
2022/01/14 10:58:37;;;;;;;23.92;15.70;;;;;;;19.64;22.29;95494.13;5008485;28;20046;-62
2022/01/14 11:01:11;;;;;;;23.52;16.27;;;;;;;18.99;22.58;95484.53;5007092;28;20569;-62
2022/01/14 11:03:38;;;;;;;25.25;17.27;;;;;;;17.73;23.85;95477.91;5010531;28;20034;-62
2022/01/14 11:06:32;;;;;;;25.88;17.50;;;;;;;16.55;25.42;95477.72;5012245;28;20052;-62
2022/01/14 11:09:03;;;;;;;30.23;17.37;;;;;;;16.68;25.98;95475.97;5010027;28;21528;-62
2022/01/14 11:11:33;;;;;;;29.45;18.75;;;;;;;17.03;25.26;95482.22;5011626;28;20045;-62
2022/01/14 11:14:00;;;;;;;29.38;18.27;;;;;;;17.05;25.16;95479.81;5011611;28;20042;-62
2022/01/14 11:16:27;;;;;;;31.88;19.25;;;;;;;17.56;24.93;95471.44;5011656;28;20045;-63
2022/01/14 11:18:58;;;;;;;33.88;19.88;;;;;;;19.16;23.44;95472.22;5011166;28;20046;-63
2022/01/14 11:24:19;;;;;;;34.92;24.35;;;;;;;19.34;22.55;95474.56;5023660;28;20116;-63
2022/01/14 11:26:48;;;;;;;31.70;21.58;;;;;;;19.54;22.29;95466.13;5011007;28;20048;-62
2022/01/14 11:29:17;;;;;;;40.70;25.70;;;;;;;19.12;22.92;95463.16;5011909;28;20050;-62
2022/01/14 11:31:44;;;;;;;39.03;26.02;;;;;;;16.67;25.52;95468.06;5010971;28;20053;-62
2022/01/14 11:34:29;;;;;;;32.43;21.07;;;;;;;18.85;23.38;95462.59;5011656;28;20046;-62
2022/01/14 11:37:05;;;;;;;26.98;18.42;;;;;;;18.15;23.78;95454.13;5010157;28;20771;-62
2022/01/14 11:39:36;;;;;;;27.05;19.02;;;;;;;15.96;27.10;95451.16;5011059;28;20072;-62
2022/01/14 11:42:04;;;;;;;29.25;18.90;;;;;;;14.80;28.87;95452.56;5010941;28;20054;-63
2022/01/14 11:44:41;;;;;;;30.15;19.13;;;;;;;17.43;25.52;95445.53;5010869;28;20058;-61
2022/01/14 11:47:29;;;;;;;32.30;21.27;;;;;;;17.67;25.06;95444.28;5011123;28;20057;-63
2022/01/14 11:49:59;;;;;;;27.35;18.15;;;;;;;18.64;23.99;95436.81;5010091;28;21554;-62
2022/01/14 11:52:37;;;;;;;26.90;18.95;;;;;;;18.24;24.56;95433.31;5011411;28;20060;-63
2022/01/14 11:55:25;;;;;;;32.33;19.45;;;;;;;20.60;22.04;95432.22;5008811;28;20899;-63
2022/01/14 11:57:56;;;;;;;31.05;18.35;;;;;;;21.89;21.05;95425.28;5010048;28;20060;-63